sensor_id;sensor_type;location;lat;lon;timestamp;temperature;humidity
1948;DHT22;974;52.400;9.818;2022-10-16T00:00:44;14.10;99.90
1948;DHT22;974;52.400;9.818;2022-10-16T00:03:10;14.00;99.90
1948;DHT22;974;52.400;9.818;2022-10-16T00:05:43;13.90;99.90
1948;DHT22;974;52.400;9.818;2022-10-16T00:08:12;13.90;99.90
1948;DHT22;974;52.400;9.818;2022-10-16T00:10:38;13.80;99.90
1948;DHT22;974;52.400;9.818;2022-10-16T00:13:05;13.80;99.90
1948;DHT22;974;52.400;9.818;2022-10-16T00:15:33;13.70;99.90
1948;DHT22;974;52.400;9.818;2022-10-16T00:18:01;13.60;99.90
1948;DHT22;974;52.400;9.818;2022-10-16T00:20:27;13.60;99.90
1948;DHT22;974;52.400;9.818;2022-10-16T00:22:52;13.60;99.90
1948;DHT22;974;52.400;9.818;2022-10-16T00:25:18;13.50;99.90
1948;DHT22;974;52.400;9.818;2022-10-16T00:27:43;13.60;99.90
1948;DHT22;974;52.400;9.818;2022-10-16T00:30:09;13.50;99.90
1948;DHT22;974;52.400;9.818;2022-10-16T00:32:35;13.40;99.90
1948;DHT22;974;52.400;9.818;2022-10-16T00:35:00;13.30;99.90
1948;DHT22;974;52.400;9.818;2022-10-16T00:37:26;13.30;99.90
1948;DHT22;974;52.400;9.818;2022-10-16T00:39:51;13.30;99.90
1948;DHT22;974;52.400;9.818;2022-10-16T00:42:18;13.20;99.90
1948;DHT22;974;52.400;9.818;2022-10-16T00:44:45;13.20;99.90
1948;DHT22;974;52.400;9.818;2022-10-16T00:47:17;13.10;99.90
1948;DHT22;974;52.400;9.818;2022-10-16T00:49:44;13.10;99.90
1948;DHT22;974;52.400;9.818;2022-10-16T00:52:10;13.10;99.90
1948;DHT22;974;52.400;9.818;2022-10-16T00:54:36;13.00;99.90
1948;DHT22;974;52.400;9.818;2022-10-16T00:57:04;13.00;99.90
1948;DHT22;974;52.400;9.818;2022-10-16T00:59:41;12.90;99.90
1948;DHT22;974;52.400;9.818;2022-10-16T01:02:09;12.80;99.90
1948;DHT22;974;52.400;9.818;2022-10-16T01:04:49;12.80;99.90
1948;DHT22;974;52.400;9.818;2022-10-16T01:10:40;12.80;99.90
1948;DHT22;974;52.400;9.818;2022-10-16T01:13:10;12.80;99.90
1948;DHT22;974;52.400;9.818;2022-10-16T01:15:51;12.80;99.90
1948;DHT22;974;52.400;9.818;2022-10-16T01:21:03;12.70;99.90
1948;DHT22;974;52.400;9.818;2022-10-16T01:29:20;12.80;99.90
1948;DHT22;974;52.400;9.818;2022-10-16T01:31:49;12.80;99.90
1948;DHT22;974;52.400;9.818;2022-10-16T01:34:19;12.80;99.90
1948;DHT22;974;52.400;9.818;2022-10-16T01:36:57;12.80;99.90
1948;DHT22;974;52.400;9.818;2022-10-16T01:39:30;12.80;99.90
1948;DHT22;974;52.400;9.818;2022-10-16T01:42:06;12.70;99.90
1948;DHT22;974;52.400;9.818;2022-10-16T01:44:34;12.70;99.90
1948;DHT22;974;52.400;9.818;2022-10-16T01:47:01;12.70;99.90
1948;DHT22;974;52.400;9.818;2022-10-16T01:49:31;12.60;99.90
1948;DHT22;974;52.400;9.818;2022-10-16T01:51:58;12.60;99.90
1948;DHT22;974;52.400;9.818;2022-10-16T01:54:30;12.60;99.90
1948;DHT22;974;52.400;9.818;2022-10-16T01:56:57;12.60;99.90
1948;DHT22;974;52.400;9.818;2022-10-16T01:59:25;12.60;99.90
1948;DHT22;974;52.400;9.818;2022-10-16T02:02:00;12.60;99.90
1948;DHT22;974;52.400;9.818;2022-10-16T02:04:33;12.50;99.90
1948;DHT22;974;52.400;9.818;2022-10-16T02:07:00;12.50;99.90
1948;DHT22;974;52.400;9.818;2022-10-16T02:09:26;12.40;99.90
1948;DHT22;974;52.400;9.818;2022-10-16T02:11:54;12.40;99.90
1948;DHT22;974;52.400;9.818;2022-10-16T02:14:20;12.40;99.90
1948;DHT22;974;52.400;9.818;2022-10-16T02:16:47;12.30;99.90
1948;DHT22;974;52.400;9.818;2022-10-16T02:19:13;12.30;99.90
1948;DHT22;974;52.400;9.818;2022-10-16T02:26:43;12.10;99.90
1948;DHT22;974;52.400;9.818;2022-10-16T02:29:12;12.10;99.90
1948;DHT22;974;52.400;9.818;2022-10-16T02:31:44;12.00;99.90
1948;DHT22;974;52.400;9.818;2022-10-16T02:34:11;12.00;99.90
1948;DHT22;974;52.400;9.818;2022-10-16T02:36:38;11.90;99.90
1948;DHT22;974;52.400;9.818;2022-10-16T02:39:04;11.90;99.90
1948;DHT22;974;52.400;9.818;2022-10-16T02:41:30;11.80;99.90
1948;DHT22;974;52.400;9.818;2022-10-16T02:43:56;11.80;99.90
1948;DHT22;974;52.400;9.818;2022-10-16T02:46:22;11.80;99.90
1948;DHT22;974;52.400;9.818;2022-10-16T02:48:48;11.80;99.90
1948;DHT22;974;52.400;9.818;2022-10-16T02:51:13;11.80;99.90
1948;DHT22;974;52.400;9.818;2022-10-16T02:53:39;11.80;99.90
1948;DHT22;974;52.400;9.818;2022-10-16T02:56:04;11.70;99.90
1948;DHT22;974;52.400;9.818;2022-10-16T02:58:30;11.70;99.90
1948;DHT22;974;52.400;9.818;2022-10-16T03:00:56;11.70;99.90
1948;DHT22;974;52.400;9.818;2022-10-16T03:03:21;11.70;99.90
1948;DHT22;974;52.400;9.818;2022-10-16T03:05:47;11.70;99.90
1948;DHT22;974;52.400;9.818;2022-10-16T03:08:13;11.70;99.90
1948;DHT22;974;52.400;9.818;2022-10-16T03:10:38;11.70;99.90
1948;DHT22;974;52.400;9.818;2022-10-16T03:13:04;11.70;99.90
1948;DHT22;974;52.400;9.818;2022-10-16T03:15:29;11.80;99.90
1948;DHT22;974;52.400;9.818;2022-10-16T03:17:57;11.80;99.90
1948;DHT22;974;52.400;9.818;2022-10-16T03:20:23;11.90;99.90
1948;DHT22;974;52.400;9.818;2022-10-16T03:22:48;11.90;99.90
1948;DHT22;974;52.400;9.818;2022-10-16T03:25:14;11.90;99.90
1948;DHT22;974;52.400;9.818;2022-10-16T03:27:39;11.90;99.90
1948;DHT22;974;52.400;9.818;2022-10-16T03:30:05;12.00;99.90
1948;DHT22;974;52.400;9.818;2022-10-16T03:32:31;12.00;99.90
1948;DHT22;974;52.400;9.818;2022-10-16T03:34:56;12.00;99.90
1948;DHT22;974;52.400;9.818;2022-10-16T03:37:22;12.00;99.90
1948;DHT22;974;52.400;9.818;2022-10-16T03:39:48;12.00;99.90
1948;DHT22;974;52.400;9.818;2022-10-16T03:42:13;12.00;99.90
1948;DHT22;974;52.400;9.818;2022-10-16T03:44:39;12.10;99.90
1948;DHT22;974;52.400;9.818;2022-10-16T03:47:04;12.10;99.90
1948;DHT22;974;52.400;9.818;2022-10-16T03:49:30;12.10;99.90
1948;DHT22;974;52.400;9.818;2022-10-16T03:51:55;12.10;99.90
1948;DHT22;974;52.400;9.818;2022-10-16T03:54:21;12.10;99.90
1948;DHT22;974;52.400;9.818;2022-10-16T03:56:47;12.20;99.90
1948;DHT22;974;52.400;9.818;2022-10-16T03:59:13;12.10;99.90
1948;DHT22;974;52.400;9.818;2022-10-16T04:01:38;12.20;99.90
1948;DHT22;974;52.400;9.818;2022-10-16T04:04:04;12.20;99.90
1948;DHT22;974;52.400;9.818;2022-10-16T04:06:29;12.20;99.90
1948;DHT22;974;52.400;9.818;2022-10-16T04:08:55;12.30;99.90
1948;DHT22;974;52.400;9.818;2022-10-16T04:11:21;12.40;99.90
1948;DHT22;974;52.400;9.818;2022-10-16T04:13:47;12.40;99.90
1948;DHT22;974;52.400;9.818;2022-10-16T04:16:12;12.50;99.90
1948;DHT22;974;52.400;9.818;2022-10-16T04:18:38;12.50;99.90
1948;DHT22;974;52.400;9.818;2022-10-16T04:21:04;12.50;99.90
1948;DHT22;974;52.400;9.818;2022-10-16T04:23:30;12.50;99.90
1948;DHT22;974;52.400;9.818;2022-10-16T04:25:56;12.50;99.90
1948;DHT22;974;52.400;9.818;2022-10-16T04:28:21;12.50;99.90
1948;DHT22;974;52.400;9.818;2022-10-16T04:30:47;12.50;99.90
1948;DHT22;974;52.400;9.818;2022-10-16T04:33:12;12.60;99.90
1948;DHT22;974;52.400;9.818;2022-10-16T04:35:38;12.50;99.90
1948;DHT22;974;52.400;9.818;2022-10-16T04:38:04;12.70;99.90
1948;DHT22;974;52.400;9.818;2022-10-16T04:40:29;12.70;99.90
1948;DHT22;974;52.400;9.818;2022-10-16T04:42:58;12.70;99.90
1948;DHT22;974;52.400;9.818;2022-10-16T04:45:24;12.80;99.90
1948;DHT22;974;52.400;9.818;2022-10-16T04:47:49;12.80;99.90
1948;DHT22;974;52.400;9.818;2022-10-16T04:50:15;12.80;99.90
1948;DHT22;974;52.400;9.818;2022-10-16T04:52:40;12.80;99.90
1948;DHT22;974;52.400;9.818;2022-10-16T04:55:06;12.70;99.90
1948;DHT22;974;52.400;9.818;2022-10-16T04:57:32;12.60;99.90
1948;DHT22;974;52.400;9.818;2022-10-16T04:59:59;12.50;99.90
1948;DHT22;974;52.400;9.818;2022-10-16T05:02:25;12.50;99.90
1948;DHT22;974;52.400;9.818;2022-10-16T05:04:51;12.40;99.90
1948;DHT22;974;52.400;9.818;2022-10-16T05:07:17;12.40;99.90
1948;DHT22;974;52.400;9.818;2022-10-16T05:09:42;12.40;99.90
1948;DHT22;974;52.400;9.818;2022-10-16T05:12:08;12.30;99.90
1948;DHT22;974;52.400;9.818;2022-10-16T05:14:33;12.30;99.90
1948;DHT22;974;52.400;9.818;2022-10-16T05:17:00;12.30;99.90
1948;DHT22;974;52.400;9.818;2022-10-16T05:19:25;12.30;99.90
1948;DHT22;974;52.400;9.818;2022-10-16T05:21:51;12.30;99.90
1948;DHT22;974;52.400;9.818;2022-10-16T05:24:16;12.20;99.90
1948;DHT22;974;52.400;9.818;2022-10-16T05:26:42;12.20;99.90
1948;DHT22;974;52.400;9.818;2022-10-16T05:29:08;12.20;99.90
1948;DHT22;974;52.400;9.818;2022-10-16T05:31:34;12.10;99.90
1948;DHT22;974;52.400;9.818;2022-10-16T05:34:00;12.10;99.90
1948;DHT22;974;52.400;9.818;2022-10-16T05:36:26;12.10;99.90
1948;DHT22;974;52.400;9.818;2022-10-16T05:38:51;12.10;99.90
1948;DHT22;974;52.400;9.818;2022-10-16T05:41:17;12.00;99.90
1948;DHT22;974;52.400;9.818;2022-10-16T05:43:47;12.10;99.90
1948;DHT22;974;52.400;9.818;2022-10-16T05:46:13;12.10;99.90
1948;DHT22;974;52.400;9.818;2022-10-16T05:48:39;12.10;99.90
1948;DHT22;974;52.400;9.818;2022-10-16T05:51:07;12.10;99.90
1948;DHT22;974;52.400;9.818;2022-10-16T05:53:34;12.20;99.90
1948;DHT22;974;52.400;9.818;2022-10-16T05:56:00;12.30;99.90
1948;DHT22;974;52.400;9.818;2022-10-16T05:58:32;12.30;99.90
1948;DHT22;974;52.400;9.818;2022-10-16T06:01:00;12.30;99.90
1948;DHT22;974;52.400;9.818;2022-10-16T06:03:26;12.30;99.90
1948;DHT22;974;52.400;9.818;2022-10-16T06:05:52;12.40;99.90
1948;DHT22;974;52.400;9.818;2022-10-16T06:08:19;12.50;99.90
1948;DHT22;974;52.400;9.818;2022-10-16T06:10:46;12.50;99.90
1948;DHT22;974;52.400;9.818;2022-10-16T06:13:12;12.60;99.90
1948;DHT22;974;52.400;9.818;2022-10-16T06:15:39;12.60;99.90
1948;DHT22;974;52.400;9.818;2022-10-16T06:18:07;12.60;99.90
1948;DHT22;974;52.400;9.818;2022-10-16T06:20:32;12.60;99.90
1948;DHT22;974;52.400;9.818;2022-10-16T06:22:58;12.60;99.90
1948;DHT22;974;52.400;9.818;2022-10-16T06:25:23;12.70;99.90
1948;DHT22;974;52.400;9.818;2022-10-16T06:27:49;12.70;99.90
1948;DHT22;974;52.400;9.818;2022-10-16T06:30:14;12.80;99.90
1948;DHT22;974;52.400;9.818;2022-10-16T06:32:40;12.80;99.90
1948;DHT22;974;52.400;9.818;2022-10-16T06:35:06;12.90;99.90
1948;DHT22;974;52.400;9.818;2022-10-16T06:37:31;13.00;99.90
1948;DHT22;974;52.400;9.818;2022-10-16T06:39:57;13.00;99.90
1948;DHT22;974;52.400;9.818;2022-10-16T06:42:22;13.10;99.90
1948;DHT22;974;52.400;9.818;2022-10-16T06:44:48;13.10;99.90
1948;DHT22;974;52.400;9.818;2022-10-16T06:47:13;13.10;99.90
1948;DHT22;974;52.400;9.818;2022-10-16T06:49:39;13.20;99.90
1948;DHT22;974;52.400;9.818;2022-10-16T06:52:04;13.20;99.90
1948;DHT22;974;52.400;9.818;2022-10-16T06:54:30;13.30;99.90
1948;DHT22;974;52.400;9.818;2022-10-16T06:56:56;13.30;99.90
1948;DHT22;974;52.400;9.818;2022-10-16T06:59:21;13.40;99.90
1948;DHT22;974;52.400;9.818;2022-10-16T07:01:47;13.40;99.90
1948;DHT22;974;52.400;9.818;2022-10-16T07:04:13;13.50;99.90
1948;DHT22;974;52.400;9.818;2022-10-16T07:06:38;13.50;99.90
1948;DHT22;974;52.400;9.818;2022-10-16T07:09:06;13.50;99.90
1948;DHT22;974;52.400;9.818;2022-10-16T07:11:32;13.60;99.90
1948;DHT22;974;52.400;9.818;2022-10-16T07:13:58;13.70;99.90
1948;DHT22;974;52.400;9.818;2022-10-16T07:16:29;13.80;99.90
1948;DHT22;974;52.400;9.818;2022-10-16T07:18:56;13.90;99.90
1948;DHT22;974;52.400;9.818;2022-10-16T07:21:27;13.90;99.90
1948;DHT22;974;52.400;9.818;2022-10-16T07:23:58;14.00;99.90
1948;DHT22;974;52.400;9.818;2022-10-16T07:26:25;14.00;99.90
1948;DHT22;974;52.400;9.818;2022-10-16T07:28:51;14.00;99.90
1948;DHT22;974;52.400;9.818;2022-10-16T07:31:18;14.00;99.90
1948;DHT22;974;52.400;9.818;2022-10-16T07:33:45;14.10;99.90
1948;DHT22;974;52.400;9.818;2022-10-16T07:36:14;14.10;99.90
1948;DHT22;974;52.400;9.818;2022-10-16T07:38:39;14.10;99.90
1948;DHT22;974;52.400;9.818;2022-10-16T07:41:07;14.20;99.90
1948;DHT22;974;52.400;9.818;2022-10-16T07:43:34;14.20;99.90
1948;DHT22;974;52.400;9.818;2022-10-16T07:46:00;14.30;99.90
1948;DHT22;974;52.400;9.818;2022-10-16T07:48:31;14.40;99.90
1948;DHT22;974;52.400;9.818;2022-10-16T07:51:01;14.50;99.90
1948;DHT22;974;52.400;9.818;2022-10-16T07:53:28;14.50;99.90
1948;DHT22;974;52.400;9.818;2022-10-16T07:56:01;14.60;99.90
1948;DHT22;974;52.400;9.818;2022-10-16T07:58:28;14.70;99.90
1948;DHT22;974;52.400;9.818;2022-10-16T08:00:54;14.80;99.90
1948;DHT22;974;52.400;9.818;2022-10-16T08:03:19;14.80;99.90
1948;DHT22;974;52.400;9.818;2022-10-16T08:05:45;14.90;99.90
1948;DHT22;974;52.400;9.818;2022-10-16T08:08:15;15.00;99.90
1948;DHT22;974;52.400;9.818;2022-10-16T08:10:41;15.10;99.90
1948;DHT22;974;52.400;9.818;2022-10-16T08:13:06;15.20;99.90
1948;DHT22;974;52.400;9.818;2022-10-16T08:15:32;15.20;99.90
1948;DHT22;974;52.400;9.818;2022-10-16T08:17:59;15.40;99.90
1948;DHT22;974;52.400;9.818;2022-10-16T08:20:26;15.50;99.90
1948;DHT22;974;52.400;9.818;2022-10-16T08:22:52;15.50;99.90
1948;DHT22;974;52.400;9.818;2022-10-16T08:25:19;15.50;99.90
1948;DHT22;974;52.400;9.818;2022-10-16T08:27:44;15.60;99.90
1948;DHT22;974;52.400;9.818;2022-10-16T08:30:10;15.60;99.90
1948;DHT22;974;52.400;9.818;2022-10-16T08:32:36;15.60;99.90
1948;DHT22;974;52.400;9.818;2022-10-16T08:35:01;15.50;99.90
1948;DHT22;974;52.400;9.818;2022-10-16T08:37:31;15.50;99.90
1948;DHT22;974;52.400;9.818;2022-10-16T08:39:57;15.50;99.90
1948;DHT22;974;52.400;9.818;2022-10-16T08:50:28;15.60;99.90
1948;DHT22;974;52.400;9.818;2022-10-16T08:52:55;15.60;99.90
1948;DHT22;974;52.400;9.818;2022-10-16T08:55:46;15.70;99.90
1948;DHT22;974;52.400;9.818;2022-10-16T08:58:14;15.70;99.90
1948;DHT22;974;52.400;9.818;2022-10-16T09:00:42;15.80;99.90
1948;DHT22;974;52.400;9.818;2022-10-16T09:11:45;15.90;99.90
1948;DHT22;974;52.400;9.818;2022-10-16T09:22:54;16.10;99.90
1948;DHT22;974;52.400;9.818;2022-10-16T09:25:22;16.20;99.90
1948;DHT22;974;52.400;9.818;2022-10-16T09:27:49;16.20;99.90
1948;DHT22;974;52.400;9.818;2022-10-16T09:30:19;16.30;99.90
1948;DHT22;974;52.400;9.818;2022-10-16T09:32:48;16.30;99.90
1948;DHT22;974;52.400;9.818;2022-10-16T09:35:21;16.30;99.90
1948;DHT22;974;52.400;9.818;2022-10-16T09:37:50;16.40;99.90
1948;DHT22;974;52.400;9.818;2022-10-16T09:40:28;16.40;99.90
1948;DHT22;974;52.400;9.818;2022-10-16T09:43:15;16.50;99.90
1948;DHT22;974;52.400;9.818;2022-10-16T09:45:54;16.50;99.90
1948;DHT22;974;52.400;9.818;2022-10-16T09:48:20;16.70;99.90
1948;DHT22;974;52.400;9.818;2022-10-16T09:50:56;16.70;99.90
1948;DHT22;974;52.400;9.818;2022-10-16T09:53:21;16.70;99.90
1948;DHT22;974;52.400;9.818;2022-10-16T09:55:52;16.80;99.90
1948;DHT22;974;52.400;9.818;2022-10-16T09:58:22;16.90;99.90
1948;DHT22;974;52.400;9.818;2022-10-16T10:00:50;17.00;99.90
1948;DHT22;974;52.400;9.818;2022-10-16T10:05:56;17.20;99.90
1948;DHT22;974;52.400;9.818;2022-10-16T10:08:21;17.30;99.90
1948;DHT22;974;52.400;9.818;2022-10-16T10:10:48;17.30;99.90
1948;DHT22;974;52.400;9.818;2022-10-16T10:13:19;17.40;99.90
1948;DHT22;974;52.400;9.818;2022-10-16T10:15:45;17.30;99.90
1948;DHT22;974;52.400;9.818;2022-10-16T10:18:21;17.40;99.90
1948;DHT22;974;52.400;9.818;2022-10-16T10:21:00;17.50;99.90
1948;DHT22;974;52.400;9.818;2022-10-16T10:23:28;17.70;99.90
1948;DHT22;974;52.400;9.818;2022-10-16T10:26:15;17.70;99.90
1948;DHT22;974;52.400;9.818;2022-10-16T10:31:42;17.90;99.90
1948;DHT22;974;52.400;9.818;2022-10-16T10:34:26;18.00;99.90
1948;DHT22;974;52.400;9.818;2022-10-16T10:37:02;18.00;99.90
1948;DHT22;974;52.400;9.818;2022-10-16T10:39:36;17.80;99.90
1948;DHT22;974;52.400;9.818;2022-10-16T10:42:25;17.70;99.90
1948;DHT22;974;52.400;9.818;2022-10-16T10:45:24;17.60;99.90
1948;DHT22;974;52.400;9.818;2022-10-16T10:48:16;17.50;99.90
1948;DHT22;974;52.400;9.818;2022-10-16T10:50:56;17.50;99.90
1948;DHT22;974;52.400;9.818;2022-10-16T10:53:44;17.50;99.90
1948;DHT22;974;52.400;9.818;2022-10-16T10:57:28;17.80;99.90
1948;DHT22;974;52.400;9.818;2022-10-16T11:02:15;18.10;99.90
1948;DHT22;974;52.400;9.818;2022-10-16T11:10:53;18.20;99.90
1948;DHT22;974;52.400;9.818;2022-10-16T11:13:47;18.30;99.90
1948;DHT22;974;52.400;9.818;2022-10-16T11:16:23;18.30;99.90
1948;DHT22;974;52.400;9.818;2022-10-16T11:22:15;18.40;99.90
1948;DHT22;974;52.400;9.818;2022-10-16T11:24:49;18.40;99.90
1948;DHT22;974;52.400;9.818;2022-10-16T11:27:20;18.50;99.90
1948;DHT22;974;52.400;9.818;2022-10-16T11:29:53;18.60;99.90
1948;DHT22;974;52.400;9.818;2022-10-16T11:35:57;18.70;99.90
1948;DHT22;974;52.400;9.818;2022-10-16T11:38:40;19.10;99.90
1948;DHT22;974;52.400;9.818;2022-10-16T11:46:42;19.40;99.90
1948;DHT22;974;52.400;9.818;2022-10-16T11:49:22;23.90;99.90
1948;DHT22;974;52.400;9.818;2022-10-16T11:54:47;31.60;94.10
1948;DHT22;974;52.400;9.818;2022-10-16T11:57:24;31.60;91.80
1948;DHT22;974;52.400;9.818;2022-10-16T12:00:08;34.10;81.00
1948;DHT22;974;52.400;9.818;2022-10-16T12:05:30;36.40;59.20
1948;DHT22;974;52.400;9.818;2022-10-16T12:08:13;39.20;55.50
1948;DHT22;974;52.400;9.818;2022-10-16T12:10:44;38.80;52.50
1948;DHT22;974;52.400;9.818;2022-10-16T12:13:35;37.60;45.40
1948;DHT22;974;52.400;9.818;2022-10-16T12:18:44;37.50;45.30
1948;DHT22;974;52.400;9.818;2022-10-16T12:21:11;34.90;43.80
1948;DHT22;974;52.400;9.818;2022-10-16T12:23:59;30.70;47.80
1948;DHT22;974;52.400;9.818;2022-10-16T12:26:28;27.10;54.40
1948;DHT22;974;52.400;9.818;2022-10-16T12:28:55;25.60;63.30
1948;DHT22;974;52.400;9.818;2022-10-16T12:31:21;24.70;62.90
1948;DHT22;974;52.400;9.818;2022-10-16T12:34:01;23.50;69.30
1948;DHT22;974;52.400;9.818;2022-10-16T12:36:34;23.30;71.00
1948;DHT22;974;52.400;9.818;2022-10-16T12:39:01;23.00;71.80
1948;DHT22;974;52.400;9.818;2022-10-16T12:41:34;21.90;75.10
1948;DHT22;974;52.400;9.818;2022-10-16T12:44:00;21.00;79.50
1948;DHT22;974;52.400;9.818;2022-10-16T12:51:37;19.70;87.50
1948;DHT22;974;52.400;9.818;2022-10-16T13:00:26;19.40;92.00
1948;DHT22;974;52.400;9.818;2022-10-16T13:11:27;19.30;95.10
1948;DHT22;974;52.400;9.818;2022-10-16T13:22:25;20.50;93.50
1948;DHT22;974;52.400;9.818;2022-10-16T13:28:00;20.30;95.10
1948;DHT22;974;52.400;9.818;2022-10-16T13:30:29;19.90;95.50
1948;DHT22;974;52.400;9.818;2022-10-16T13:33:04;19.90;96.00
1948;DHT22;974;52.400;9.818;2022-10-16T13:35:32;20.00;96.00
1948;DHT22;974;52.400;9.818;2022-10-16T13:38:15;19.70;95.70
1948;DHT22;974;52.400;9.818;2022-10-16T13:40:58;19.60;95.70
1948;DHT22;974;52.400;9.818;2022-10-16T13:43:32;19.50;95.60
1948;DHT22;974;52.400;9.818;2022-10-16T13:48:30;19.40;96.70
1948;DHT22;974;52.400;9.818;2022-10-16T13:53:40;19.00;96.90
1948;DHT22;974;52.400;9.818;2022-10-16T13:56:10;19.00;97.80
1948;DHT22;974;52.400;9.818;2022-10-16T13:58:36;18.90;97.70
1948;DHT22;974;52.400;9.818;2022-10-16T14:01:04;18.90;97.80
1948;DHT22;974;52.400;9.818;2022-10-16T14:03:31;18.70;97.70
1948;DHT22;974;52.400;9.818;2022-10-16T14:06:03;18.70;98.10
1948;DHT22;974;52.400;9.818;2022-10-16T14:08:31;18.70;98.40
1948;DHT22;974;52.400;9.818;2022-10-16T14:10:59;18.70;98.60
1948;DHT22;974;52.400;9.818;2022-10-16T14:13:36;18.70;98.60
1948;DHT22;974;52.400;9.818;2022-10-16T14:16:09;18.70;98.70
1948;DHT22;974;52.400;9.818;2022-10-16T14:18:37;18.70;98.90
1948;DHT22;974;52.400;9.818;2022-10-16T14:21:11;18.50;99.00
1948;DHT22;974;52.400;9.818;2022-10-16T14:23:39;18.50;99.30
1948;DHT22;974;52.400;9.818;2022-10-16T14:26:17;18.50;99.80
1948;DHT22;974;52.400;9.818;2022-10-16T14:28:45;18.50;99.80
1948;DHT22;974;52.400;9.818;2022-10-16T14:31:24;18.40;99.90
1948;DHT22;974;52.400;9.818;2022-10-16T14:33:50;18.50;99.90
1948;DHT22;974;52.400;9.818;2022-10-16T14:36:16;18.50;99.90
1948;DHT22;974;52.400;9.818;2022-10-16T14:38:53;18.50;99.90
1948;DHT22;974;52.400;9.818;2022-10-16T14:41:22;18.40;99.90
1948;DHT22;974;52.400;9.818;2022-10-16T14:43:54;18.40;99.90
1948;DHT22;974;52.400;9.818;2022-10-16T14:46:22;18.40;99.90
1948;DHT22;974;52.400;9.818;2022-10-16T14:49:02;18.40;99.90
1948;DHT22;974;52.400;9.818;2022-10-16T14:51:29;18.40;99.90
1948;DHT22;974;52.400;9.818;2022-10-16T14:53:54;18.30;99.90
1948;DHT22;974;52.400;9.818;2022-10-16T14:56:24;18.30;99.90
1948;DHT22;974;52.400;9.818;2022-10-16T14:58:51;18.30;99.90
1948;DHT22;974;52.400;9.818;2022-10-16T15:01:17;18.30;99.90
1948;DHT22;974;52.400;9.818;2022-10-16T15:03:43;18.40;99.90
1948;DHT22;974;52.400;9.818;2022-10-16T15:06:15;18.30;99.90
1948;DHT22;974;52.400;9.818;2022-10-16T15:08:41;18.30;99.90
1948;DHT22;974;52.400;9.818;2022-10-16T15:11:13;18.30;99.90
1948;DHT22;974;52.400;9.818;2022-10-16T15:13:39;18.20;99.90
1948;DHT22;974;52.400;9.818;2022-10-16T15:16:07;18.20;99.90
1948;DHT22;974;52.400;9.818;2022-10-16T15:18:32;18.20;99.90
1948;DHT22;974;52.400;9.818;2022-10-16T15:20:58;18.10;99.90
1948;DHT22;974;52.400;9.818;2022-10-16T15:23:23;18.10;99.90
1948;DHT22;974;52.400;9.818;2022-10-16T15:25:51;18.10;99.90
1948;DHT22;974;52.400;9.818;2022-10-16T15:28:17;18.00;99.90
1948;DHT22;974;52.400;9.818;2022-10-16T15:30:44;17.90;99.90
1948;DHT22;974;52.400;9.818;2022-10-16T15:33:16;17.90;99.90
1948;DHT22;974;52.400;9.818;2022-10-16T15:35:42;17.90;99.90
1948;DHT22;974;52.400;9.818;2022-10-16T15:38:14;17.80;99.90
1948;DHT22;974;52.400;9.818;2022-10-16T15:40:40;17.80;99.90
1948;DHT22;974;52.400;9.818;2022-10-16T15:43:06;17.70;99.90
1948;DHT22;974;52.400;9.818;2022-10-16T15:45:32;17.70;99.90
1948;DHT22;974;52.400;9.818;2022-10-16T15:47:58;17.50;99.90
1948;DHT22;974;52.400;9.818;2022-10-16T15:50:23;17.50;99.90
1948;DHT22;974;52.400;9.818;2022-10-16T15:52:50;17.40;99.90
1948;DHT22;974;52.400;9.818;2022-10-16T15:55:16;17.30;99.90
1948;DHT22;974;52.400;9.818;2022-10-16T15:57:42;17.20;99.90
1948;DHT22;974;52.400;9.818;2022-10-16T16:00:11;17.10;99.90
1948;DHT22;974;52.400;9.818;2022-10-16T16:02:37;16.90;99.90
1948;DHT22;974;52.400;9.818;2022-10-16T16:05:03;16.80;99.90
1948;DHT22;974;52.400;9.818;2022-10-16T16:07:32;16.60;99.90
1948;DHT22;974;52.400;9.818;2022-10-16T16:09:58;16.50;99.90
1948;DHT22;974;52.400;9.818;2022-10-16T16:12:24;16.40;99.90
1948;DHT22;974;52.400;9.818;2022-10-16T16:14:49;16.30;99.90
1948;DHT22;974;52.400;9.818;2022-10-16T16:17:15;16.20;99.90
1948;DHT22;974;52.400;9.818;2022-10-16T16:19:40;16.10;99.90
1948;DHT22;974;52.400;9.818;2022-10-16T16:22:06;16.00;99.90
1948;DHT22;974;52.400;9.818;2022-10-16T16:24:31;15.80;99.90
1948;DHT22;974;52.400;9.818;2022-10-16T16:26:57;15.70;99.90
1948;DHT22;974;52.400;9.818;2022-10-16T16:29:22;15.60;99.90
1948;DHT22;974;52.400;9.818;2022-10-16T16:31:48;15.50;99.90
1948;DHT22;974;52.400;9.818;2022-10-16T16:34:14;15.40;99.90
1948;DHT22;974;52.400;9.818;2022-10-16T16:36:40;15.30;99.90
1948;DHT22;974;52.400;9.818;2022-10-16T16:39:06;15.20;99.90
1948;DHT22;974;52.400;9.818;2022-10-16T16:41:33;15.10;99.90
1948;DHT22;974;52.400;9.818;2022-10-16T16:44:06;15.00;99.90
1948;DHT22;974;52.400;9.818;2022-10-16T16:46:33;14.90;99.90
1948;DHT22;974;52.400;9.818;2022-10-16T16:49:00;14.80;99.90
1948;DHT22;974;52.400;9.818;2022-10-16T16:51:25;14.70;99.90
1948;DHT22;974;52.400;9.818;2022-10-16T16:53:52;14.60;99.90
1948;DHT22;974;52.400;9.818;2022-10-16T16:56:18;14.50;99.90
1948;DHT22;974;52.400;9.818;2022-10-16T16:58:46;14.50;99.90
1948;DHT22;974;52.400;9.818;2022-10-16T17:01:11;14.50;99.90
1948;DHT22;974;52.400;9.818;2022-10-16T17:03:37;14.40;99.90
1948;DHT22;974;52.400;9.818;2022-10-16T17:06:07;14.40;99.90
1948;DHT22;974;52.400;9.818;2022-10-16T17:08:36;14.40;99.90
1948;DHT22;974;52.400;9.818;2022-10-16T17:11:02;14.30;99.90
1948;DHT22;974;52.400;9.818;2022-10-16T17:13:32;14.30;99.90
1948;DHT22;974;52.400;9.818;2022-10-16T17:16:00;14.30;99.90
1948;DHT22;974;52.400;9.818;2022-10-16T17:18:26;14.30;99.90
1948;DHT22;974;52.400;9.818;2022-10-16T17:20:51;14.40;99.90
1948;DHT22;974;52.400;9.818;2022-10-16T17:23:18;14.40;99.90
1948;DHT22;974;52.400;9.818;2022-10-16T17:25:45;14.40;99.90
1948;DHT22;974;52.400;9.818;2022-10-16T17:28:12;14.40;99.90
1948;DHT22;974;52.400;9.818;2022-10-16T17:30:39;14.40;99.90
1948;DHT22;974;52.400;9.818;2022-10-16T17:33:06;14.40;99.90
1948;DHT22;974;52.400;9.818;2022-10-16T17:35:43;14.40;99.90
1948;DHT22;974;52.400;9.818;2022-10-16T17:38:11;14.40;99.90
1948;DHT22;974;52.400;9.818;2022-10-16T17:40:37;14.30;99.90
1948;DHT22;974;52.400;9.818;2022-10-16T17:43:03;14.30;99.90
1948;DHT22;974;52.400;9.818;2022-10-16T17:45:29;14.30;99.90
1948;DHT22;974;52.400;9.818;2022-10-16T17:47:55;14.30;99.90
1948;DHT22;974;52.400;9.818;2022-10-16T17:50:20;14.30;99.90
1948;DHT22;974;52.400;9.818;2022-10-16T17:52:46;14.30;99.90
1948;DHT22;974;52.400;9.818;2022-10-16T17:55:12;14.30;99.90
1948;DHT22;974;52.400;9.818;2022-10-16T17:57:38;14.30;99.90
1948;DHT22;974;52.400;9.818;2022-10-16T18:00:04;14.30;99.90
1948;DHT22;974;52.400;9.818;2022-10-16T18:02:30;14.30;99.90
1948;DHT22;974;52.400;9.818;2022-10-16T18:04:56;14.30;99.90
1948;DHT22;974;52.400;9.818;2022-10-16T18:07:22;14.30;99.90
1948;DHT22;974;52.400;9.818;2022-10-16T18:09:48;14.30;99.90
1948;DHT22;974;52.400;9.818;2022-10-16T18:12:14;14.30;99.90
1948;DHT22;974;52.400;9.818;2022-10-16T18:14:39;14.30;99.90
1948;DHT22;974;52.400;9.818;2022-10-16T18:17:05;14.30;99.90
1948;DHT22;974;52.400;9.818;2022-10-16T18:19:31;14.20;99.90